createdAt,value
2018-12-20T00:00:10.033Z,28.55
2018-12-20T00:02:38.889Z,27.60
2018-12-20T00:05:08.102Z,28.23
2018-12-20T00:07:37.067Z,29.05
2018-12-20T00:10:06.775Z,27.20
2018-12-20T00:12:35.795Z,30.02
2018-12-20T00:15:05.147Z,30.12
2018-12-20T00:17:39.625Z,29.42
2018-12-20T00:20:08.472Z,27.15
2018-12-20T00:22:37.594Z,29.20
2018-12-20T00:25:07.299Z,28.73
2018-12-20T00:27:36.705Z,28.73
2018-12-20T00:30:06.200Z,28.47
2018-12-20T00:32:35.206Z,28.00
2018-12-20T00:35:04.234Z,29.32
2018-12-20T00:37:33.032Z,28.47
2018-12-20T00:40:06.369Z,28.30
2018-12-20T00:42:32.972Z,30.92
2018-12-20T00:45:02.106Z,26.60
2018-12-20T00:47:31.089Z,29.37
2018-12-20T00:50:00.164Z,29.30
2018-12-20T00:52:29.116Z,29.50
2018-12-20T00:54:57.979Z,27.95
2018-12-20T00:57:26.676Z,26.90
2018-12-20T00:59:55.448Z,28.67
2018-12-20T01:02:24.353Z,30.68
2018-12-20T01:04:53.126Z,28.67
2018-12-20T01:07:22.015Z,29.80
2018-12-20T01:09:50.855Z,29.52
2018-12-20T01:12:19.817Z,30.77
2018-12-20T01:14:48.768Z,30.35
2018-12-20T01:17:18.532Z,29.32
2018-12-20T01:19:47.544Z,28.25
2018-12-20T01:22:16.520Z,29.10
2018-12-20T01:24:45.694Z,29.05
2018-12-20T01:27:14.511Z,32.35
2018-12-20T01:29:43.482Z,29.02
2018-12-20T01:32:12.580Z,31.15
2018-12-20T01:34:41.733Z,29.65
2018-12-20T01:37:10.547Z,32.48
2018-12-20T01:39:39.476Z,27.58
2018-12-20T01:42:08.731Z,30.12
2018-12-20T01:44:37.520Z,32.73
2018-12-20T01:47:06.365Z,31.73
2018-12-20T01:49:35.315Z,31.48
2018-12-20T01:52:04.439Z,30.97
2018-12-20T01:54:33.536Z,32.78
2018-12-20T01:57:02.397Z,29.60
2018-12-20T01:59:32.105Z,32.70
2018-12-20T02:02:01.128Z,31.73
2018-12-20T02:04:30.743Z,29.23
2018-12-20T02:06:59.941Z,30.88
2018-12-20T02:09:33.243Z,32.88
2018-12-20T02:12:02.276Z,31.52
2018-12-20T02:14:31.607Z,30.40
2018-12-20T02:17:00.492Z,32.90
2018-12-20T02:19:29.520Z,29.95
2018-12-20T02:21:58.675Z,31.33
2018-12-20T02:24:27.694Z,34.60
2018-12-20T02:26:56.661Z,32.03
2018-12-20T02:29:25.642Z,33.38
2018-12-20T02:31:57.246Z,31.45
2018-12-20T02:34:26.180Z,34.55
2018-12-20T02:36:55.905Z,32.90
2018-12-20T02:39:25.742Z,32.85
2018-12-20T02:41:54.850Z,34.25
2018-12-20T02:44:23.786Z,33.23
2018-12-20T02:46:52.579Z,31.17
2018-12-20T02:49:22.996Z,29.30
2018-12-20T02:51:51.788Z,30.20
2018-12-20T02:54:21.031Z,28.95
2018-12-20T02:56:50.033Z,32.78
2018-12-20T02:59:19.044Z,33.15
2018-12-20T03:01:48.185Z,31.52
2018-12-20T03:04:16.957Z,34.05
2018-12-20T03:06:46.249Z,36.88
2018-12-20T03:09:15.124Z,33.50
2018-12-20T03:11:44.027Z,38.05
2018-12-20T03:14:13.136Z,28.90
2018-12-20T03:16:41.989Z,27.80
2018-12-20T03:19:10.955Z,30.10
2018-12-20T03:21:39.906Z,28.95
2018-12-20T03:24:08.674Z,31.82
2018-12-20T03:26:37.522Z,31.33
2018-12-20T03:29:06.474Z,33.55
2018-12-20T03:31:35.790Z,29.55
2018-12-20T03:34:04.763Z,32.95
2018-12-20T03:36:33.957Z,32.58
2018-12-20T03:39:03.095Z,30.30
2018-12-20T03:41:32.000Z,29.67
2018-12-20T03:44:00.893Z,29.25
2018-12-20T03:46:29.628Z,31.48
2018-12-20T03:48:58.514Z,29.72
2018-12-20T03:51:27.934Z,32.83
2018-12-20T03:53:56.755Z,31.23
2018-12-20T03:56:25.599Z,33.63
2018-12-20T03:58:54.581Z,33.58
2018-12-20T04:01:23.385Z,33.95
2018-12-20T04:03:52.163Z,35.68
2018-12-20T04:06:20.974Z,33.15
2018-12-20T04:08:50.087Z,31.95
2018-12-20T04:11:19.077Z,38.60
2018-12-20T04:13:48.299Z,36.05
2018-12-20T04:16:17.424Z,37.20
2018-12-20T04:18:46.323Z,35.52
2018-12-20T04:21:15.869Z,33.02
2018-12-20T04:23:45.715Z,30.43
2018-12-20T04:26:14.766Z,33.33
2018-12-20T04:28:43.590Z,33.70
2018-12-20T04:31:13.464Z,35.98
2018-12-20T04:33:42.431Z,37.75
2018-12-20T04:36:12.241Z,34.33
2018-12-20T04:38:41.125Z,35.17
2018-12-20T04:41:10.030Z,34.08
2018-12-20T04:43:38.750Z,35.33
2018-12-20T04:46:07.655Z,34.23
2018-12-20T04:48:36.600Z,33.35
2018-12-20T04:51:05.813Z,35.17
2018-12-20T04:53:34.813Z,33.85
2018-12-20T04:56:03.916Z,33.30
2018-12-20T04:58:33.031Z,36.30
2018-12-20T05:01:02.387Z,36.35
2018-12-20T05:03:31.466Z,35.48
2018-12-20T05:06:00.664Z,38.00
2018-12-20T05:08:29.644Z,37.55
2018-12-20T05:10:58.547Z,36.33
2018-12-20T05:13:27.414Z,36.55
2018-12-20T05:15:56.830Z,33.80
2018-12-20T05:18:28.700Z,34.15
2018-12-20T05:20:57.716Z,35.20
2018-12-20T05:23:26.798Z,35.95
2018-12-20T05:25:55.852Z,32.93
2018-12-20T05:28:24.797Z,36.08
2018-12-20T05:30:53.558Z,35.52
2018-12-20T05:33:22.533Z,36.93
2018-12-20T05:35:51.866Z,36.38
2018-12-20T05:38:20.640Z,38.55
2018-12-20T05:40:49.428Z,38.53
2018-12-20T05:43:18.217Z,35.78
2018-12-20T05:45:47.048Z,35.80
2018-12-20T05:48:15.953Z,34.70
2018-12-20T05:50:44.932Z,36.95
2018-12-20T05:53:14.618Z,33.45
2018-12-20T05:55:43.382Z,35.00
2018-12-20T05:58:12.478Z,35.80
2018-12-20T06:00:41.265Z,36.95
2018-12-20T06:03:10.266Z,37.93
2018-12-20T06:05:39.297Z,36.75
2018-12-20T06:08:08.140Z,36.90
2018-12-20T06:10:36.928Z,37.00
2018-12-20T06:13:05.778Z,34.25
2018-12-20T06:15:35.505Z,34.58
2018-12-20T06:18:04.737Z,32.35
2018-12-20T06:20:33.870Z,32.45
2018-12-20T06:23:03.123Z,33.92
2018-12-20T06:25:32.011Z,35.17
2018-12-20T06:28:00.986Z,35.40
2018-12-20T06:30:29.896Z,34.67
2018-12-20T06:32:58.727Z,37.28
2018-12-20T06:35:27.572Z,35.68
2018-12-20T06:37:56.715Z,33.85
2018-12-20T06:40:25.712Z,37.40
2018-12-20T06:42:54.446Z,36.85
2018-12-20T06:45:23.235Z,36.38
2018-12-20T06:47:52.076Z,33.63
2018-12-20T06:50:20.810Z,35.65
2018-12-20T06:52:49.598Z,36.68
2018-12-20T06:55:19.001Z,35.00
2018-12-20T06:57:47.791Z,32.67
2018-12-20T07:00:16.678Z,33.20
2018-12-20T07:02:45.365Z,31.25
2018-12-20T07:05:14.848Z,33.92
2018-12-20T07:07:43.553Z,35.38
2018-12-20T07:10:12.960Z,35.15
2018-12-20T07:12:41.845Z,35.78
2018-12-20T07:15:10.743Z,37.10
2018-12-20T07:17:39.651Z,33.18
2018-12-20T07:20:08.516Z,34.67
2018-12-20T07:22:37.305Z,33.63
2018-12-20T07:25:06.501Z,35.17
2018-12-20T07:27:36.289Z,35.73
2018-12-20T07:30:07.268Z,37.98
2018-12-20T07:32:36.039Z,37.30
2018-12-20T07:35:05.435Z,37.53
2018-12-20T07:37:34.232Z,38.33
2018-12-20T07:40:03.764Z,38.35
2018-12-20T07:42:32.422Z,38.25
2018-12-20T07:45:01.249Z,39.25
2018-12-20T07:47:29.995Z,37.38
2018-12-20T07:49:58.783Z,38.90
2018-12-20T07:52:27.571Z,37.93
2018-12-20T07:54:56.359Z,39.48
2018-12-20T07:57:25.146Z,39.63
2018-12-20T07:59:53.935Z,38.17
2018-12-20T08:02:22.927Z,38.38
2018-12-20T08:04:51.613Z,41.55
2018-12-20T08:07:20.502Z,38.58
2018-12-20T08:09:49.289Z,40.88
2018-12-20T08:12:18.077Z,38.73
2018-12-20T08:14:46.968Z,41.15
2018-12-20T08:17:15.858Z,38.65
2018-12-20T08:19:44.544Z,36.13
2018-12-20T08:22:13.332Z,42.20
2018-12-20T08:24:42.023Z,40.85
2018-12-20T08:27:10.806Z,42.25
2018-12-20T08:29:39.900Z,38.20
2018-12-20T08:32:08.688Z,41.45
2018-12-20T08:34:37.475Z,37.80
2018-12-20T08:37:07.855Z,40.45
2018-12-20T08:39:37.849Z,38.48
2018-12-20T08:42:08.092Z,38.50
2018-12-20T08:44:38.089Z,39.75
2018-12-20T08:47:07.559Z,36.60
2018-12-20T08:49:36.347Z,37.33
2018-12-20T08:52:05.170Z,35.95
2018-12-20T08:54:34.127Z,39.48
2018-12-20T08:57:04.369Z,34.98
2018-12-20T08:59:33.341Z,34.88
2018-12-20T09:02:02.028Z,37.93
2018-12-20T09:04:30.916Z,37.28
2018-12-20T09:06:59.704Z,36.73
2018-12-20T09:09:28.697Z,37.13
2018-12-20T09:11:57.486Z,39.27
2018-12-20T09:14:26.273Z,39.18
2018-12-20T09:17:02.650Z,39.75
2018-12-20T09:19:26.715Z,37.85
2018-12-20T09:21:55.504Z,36.70
2018-12-20T09:24:24.289Z,37.40
2018-12-20T09:26:52.977Z,37.95
2018-12-20T09:29:22.276Z,36.65
2018-12-20T09:31:51.068Z,37.53
2018-12-20T09:34:31.753Z,37.10
2018-12-20T09:37:12.576Z,38.30
2018-12-20T09:39:48.195Z,36.30
2018-12-20T09:42:22.113Z,36.33
2018-12-20T09:44:56.744Z,35.08
2018-12-20T09:47:35.159Z,36.42
2018-12-20T09:50:11.776Z,35.80
2018-12-20T09:52:48.968Z,33.28
2018-12-20T09:55:23.436Z,37.67
2018-12-20T09:57:59.502Z,33.78
2018-12-20T10:00:41.491Z,34.43
2018-12-20T10:03:22.348Z,33.92
2018-12-20T10:06:04.597Z,34.88
2018-12-20T10:08:41.957Z,34.43
2018-12-20T10:11:22.065Z,33.75
2018-12-20T10:13:56.594Z,31.93
2018-12-20T10:16:30.541Z,33.38
2018-12-20T10:19:12.437Z,32.90
2018-12-20T10:21:56.075Z,33.42
2018-12-20T10:24:37.353Z,32.95
2018-12-20T10:27:21.718Z,35.13
2018-12-20T10:30:16.608Z,35.45
2018-12-20T10:32:54.153Z,35.28
2018-12-20T10:35:29.744Z,32.85
2018-12-20T10:37:58.672Z,35.13
2018-12-20T10:40:30.325Z,32.33
2018-12-20T10:42:59.012Z,33.00
2018-12-20T10:45:28.515Z,35.00
2018-12-20T10:47:57.313Z,32.75
2018-12-20T10:50:26.604Z,34.88
2018-12-20T10:52:55.391Z,33.45
2018-12-20T10:55:24.588Z,33.88
2018-12-20T10:57:53.703Z,32.75
2018-12-20T11:00:24.620Z,32.20
2018-12-20T11:04:00.385Z,32.67
2018-12-20T11:06:34.596Z,33.67
2018-12-20T11:10:12.502Z,34.25
2018-12-20T11:12:46.717Z,34.48
2018-12-20T11:15:15.606Z,36.20
2018-12-20T11:17:44.394Z,34.20
2018-12-20T11:20:13.284Z,34.00
2018-12-20T11:22:41.974Z,36.58
2018-12-20T11:25:10.862Z,34.03
2018-12-20T11:27:40.672Z,34.25
2018-12-20T11:30:10.970Z,36.73
2018-12-20T11:32:39.685Z,36.88
2018-12-20T11:35:09.153Z,36.83
2018-12-20T11:37:37.976Z,35.30
2018-12-20T11:40:08.091Z,36.60
2018-12-20T11:42:37.130Z,40.10
2018-12-20T11:45:06.782Z,36.30
2018-12-20T11:47:35.584Z,33.67
2018-12-20T11:50:04.681Z,34.67
2018-12-20T11:52:33.468Z,35.35
2018-12-20T11:55:02.253Z,37.20
2018-12-20T11:57:31.041Z,35.05
2018-12-20T12:00:00.034Z,35.52
2018-12-20T12:02:28.821Z,37.85
2018-12-20T12:04:57.611Z,37.15
2018-12-20T12:07:26.397Z,35.83
2018-12-20T12:09:55.291Z,34.92
2018-12-20T12:12:24.076Z,36.05
2018-12-20T12:14:52.918Z,33.48
2018-12-20T12:17:21.753Z,35.13
2018-12-20T12:19:50.439Z,35.65
2018-12-20T12:22:19.328Z,35.52
2018-12-20T12:24:48.018Z,37.93
2018-12-20T12:27:17.006Z,35.03
2018-12-20T12:29:45.898Z,35.40
2018-12-20T12:32:17.526Z,37.83
2018-12-20T12:34:46.545Z,36.45
2018-12-20T12:37:15.526Z,35.28
2018-12-20T12:39:45.147Z,36.17
2018-12-20T12:42:13.933Z,33.42
2018-12-20T12:44:42.867Z,37.25
2018-12-20T12:47:11.610Z,34.73
2018-12-20T12:49:40.603Z,31.68
2018-12-20T12:52:09.392Z,30.75
2018-12-20T12:54:38.075Z,31.15
2018-12-20T12:57:06.972Z,30.57
2018-12-20T12:59:35.653Z,34.08
2018-12-20T13:02:04.485Z,32.98
2018-12-20T13:04:33.227Z,31.05
2018-12-20T13:07:02.146Z,30.95
2018-12-20T13:09:30.905Z,29.42
2018-12-20T13:11:59.580Z,30.32
2018-12-20T13:14:28.276Z,28.12
2018-12-20T13:16:56.964Z,28.95
2018-12-20T13:19:26.058Z,26.57
2018-12-20T13:21:54.844Z,31.75
2018-12-20T13:24:23.741Z,28.30
2018-12-20T13:26:53.139Z,26.97
2018-12-20T13:29:21.822Z,28.70
2018-12-20T13:31:50.611Z,29.18
2018-12-20T13:34:19.499Z,29.63
2018-12-20T13:36:48.288Z,29.50
2018-12-20T13:39:17.280Z,27.75
2018-12-20T13:41:46.378Z,27.65
2018-12-20T13:44:15.060Z,30.48
2018-12-20T13:46:43.787Z,31.20
2018-12-20T13:49:12.534Z,28.20
2018-12-20T13:51:41.320Z,30.82
2018-12-20T13:54:10.054Z,29.92
2018-12-20T13:56:38.873Z,28.80
2018-12-20T13:59:07.583Z,27.90
2018-12-20T14:01:36.370Z,29.07
2018-12-20T14:04:05.159Z,29.63
2018-12-20T14:06:33.846Z,30.95
2018-12-20T14:09:02.630Z,27.85
2018-12-20T14:11:31.421Z,28.92
2018-12-20T14:14:00.412Z,28.83
2018-12-20T14:16:29.303Z,29.37
2018-12-20T14:18:58.089Z,31.02
2018-12-20T14:21:26.879Z,30.27
2018-12-20T14:23:55.872Z,31.85
2018-12-20T14:26:24.761Z,29.92
2018-12-20T14:28:53.649Z,30.23
2018-12-20T14:31:22.419Z,30.32
2018-12-20T14:33:51.433Z,30.68
2018-12-20T14:36:20.298Z,31.65
2018-12-20T14:38:49.217Z,32.28
2018-12-20T14:41:18.059Z,28.92
2018-12-20T14:43:46.890Z,32.73
2018-12-20T14:46:15.676Z,31.57
2018-12-20T14:48:44.527Z,29.90
2018-12-20T14:51:13.907Z,32.60
2018-12-20T14:53:42.655Z,33.05
2018-12-20T14:56:11.444Z,30.35
2018-12-20T14:58:40.333Z,30.62
2018-12-20T15:01:09.230Z,29.60
2018-12-20T15:03:38.012Z,30.72
2018-12-20T15:06:06.902Z,28.10
2018-12-20T15:08:35.691Z,31.52
2018-12-20T15:11:04.580Z,30.52
2018-12-20T15:13:33.369Z,30.25
2018-12-20T15:16:02.226Z,28.55
2018-12-20T15:18:31.249Z,29.07
2018-12-20T15:21:00.753Z,30.15
2018-12-20T15:23:30.156Z,29.70
2018-12-20T15:25:58.944Z,30.55
2018-12-20T15:28:27.740Z,28.65
2018-12-20T15:30:56.520Z,30.72
2018-12-20T15:33:25.306Z,30.77
2018-12-20T15:35:54.095Z,28.23
2018-12-20T15:38:23.599Z,30.68
2018-12-20T15:40:52.387Z,29.75
2018-12-20T15:43:21.393Z,30.92
2018-12-20T15:45:50.168Z,33.42
2018-12-20T15:48:18.856Z,34.48
2018-12-20T15:50:47.642Z,31.45
2018-12-20T15:53:16.429Z,32.83
2018-12-20T15:55:45.321Z,32.60
2018-12-20T15:58:14.108Z,31.73
2018-12-20T16:00:42.899Z,32.40
2018-12-20T16:03:11.685Z,32.08
2018-12-20T16:05:40.427Z,31.05
2018-12-20T16:08:09.464Z,31.05
2018-12-20T16:10:38.359Z,35.88
2018-12-20T16:13:07.245Z,32.55
2018-12-20T16:15:35.931Z,30.90
2018-12-20T16:18:04.720Z,30.30
2018-12-20T16:20:33.914Z,32.20
2018-12-20T16:23:02.711Z,33.25
2018-12-20T16:25:31.688Z,37.05
2018-12-20T16:28:00.486Z,31.35
2018-12-20T16:30:29.272Z,29.48
2018-12-20T16:32:58.369Z,27.52
2018-12-20T16:35:27.157Z,29.85
2018-12-20T16:37:56.251Z,30.70
2018-12-20T16:40:25.037Z,28.45
2018-12-20T16:42:54.035Z,32.25
2018-12-20T16:45:22.920Z,33.92
2018-12-20T16:47:51.811Z,28.20
2018-12-20T16:50:20.601Z,29.80
2018-12-20T16:52:49.385Z,28.92
2018-12-20T16:55:18.273Z,28.77
2018-12-20T16:57:47.062Z,30.23
2018-12-20T17:00:15.748Z,28.47
2018-12-20T17:02:44.535Z,28.20
2018-12-20T17:05:13.428Z,26.40
2018-12-20T17:07:42.217Z,27.95
2018-12-20T17:10:11.206Z,32.20
2018-12-20T17:12:39.993Z,27.98
2018-12-20T17:15:09.400Z,28.85
2018-12-20T17:17:38.185Z,28.38
2018-12-20T17:20:08.100Z,27.22
2018-12-20T17:22:36.988Z,30.30
2018-12-20T17:25:05.881Z,28.12
2018-12-20T17:27:35.260Z,29.32
2018-12-20T17:30:04.701Z,31.00
2018-12-20T17:32:33.489Z,28.05
2018-12-20T17:35:02.261Z,30.90
2018-12-20T17:37:31.044Z,27.65
2018-12-20T17:39:59.845Z,30.50
2018-12-20T17:42:28.624Z,29.07
2018-12-20T17:45:00.226Z,31.57
2018-12-20T17:47:29.374Z,28.83
2018-12-20T17:49:58.221Z,28.42
2018-12-20T17:52:27.138Z,27.27
2018-12-20T17:54:55.940Z,26.12
2018-12-20T17:57:24.728Z,27.40
2018-12-20T17:59:54.028Z,28.45
2018-12-20T18:02:22.816Z,29.23
2018-12-20T18:04:51.605Z,26.27
2018-12-20T18:07:20.289Z,26.27
2018-12-20T18:09:49.180Z,27.85
2018-12-20T18:12:17.973Z,24.40
2018-12-20T18:14:46.958Z,24.12
2018-12-20T18:17:15.951Z,24.75
2018-12-20T18:19:44.758Z,22.85
2018-12-20T18:22:13.528Z,24.47
2018-12-20T18:24:42.321Z,25.85
2018-12-20T18:27:11.103Z,23.87
2018-12-20T18:29:40.261Z,25.57
2018-12-20T18:32:08.988Z,23.57
2018-12-20T18:34:37.898Z,22.70
2018-12-20T18:37:06.774Z,26.10
2018-12-20T18:39:35.574Z,57.95
2018-12-20T18:42:04.650Z,25.48
2018-12-20T18:44:33.436Z,22.02
2018-12-20T18:47:02.253Z,26.40
2018-12-20T18:49:31.119Z,43.38
2018-12-20T18:52:00.317Z,23.60
2018-12-20T18:54:29.123Z,22.93
2018-12-20T18:56:58.092Z,23.02
2018-12-20T18:59:26.820Z,22.73
2018-12-20T19:01:55.670Z,25.43
2018-12-20T19:04:24.457Z,22.77
2018-12-20T19:06:53.363Z,22.52
2018-12-20T19:09:22.134Z,23.52
2018-12-20T19:11:51.489Z,24.20
2018-12-20T19:14:20.324Z,24.72
2018-12-20T19:16:49.009Z,22.85
2018-12-20T19:19:17.797Z,21.60
2018-12-20T19:21:47.428Z,22.75
2018-12-20T19:24:16.735Z,22.80
2018-12-20T19:26:45.800Z,22.70
2018-12-20T19:29:14.589Z,22.58
2018-12-20T19:31:43.400Z,21.50
2018-12-20T19:34:12.288Z,23.25
2018-12-20T19:36:41.054Z,23.22
2018-12-20T19:39:13.114Z,23.00
2018-12-20T19:41:41.913Z,22.00
2018-12-20T19:44:10.693Z,21.42
2018-12-20T19:46:39.483Z,23.38
2018-12-20T19:49:08.270Z,19.67
2018-12-20T19:51:37.057Z,20.10
2018-12-20T19:54:05.743Z,20.97
2018-12-20T19:56:34.530Z,21.27
2018-12-20T19:59:03.448Z,20.37
2018-12-20T20:01:33.342Z,19.77
2018-12-20T20:04:02.430Z,20.88
2018-12-20T20:06:31.321Z,21.57
2018-12-20T20:09:00.107Z,17.57
2018-12-20T20:11:28.897Z,18.67
2018-12-20T20:13:57.787Z,17.70
2018-12-20T20:16:26.777Z,20.12
2018-12-20T20:18:55.670Z,20.80
2018-12-20T20:21:24.557Z,17.98
2018-12-20T20:23:53.189Z,20.15
2018-12-20T20:26:22.241Z,19.67
2018-12-20T20:28:51.026Z,20.68
2018-12-20T20:31:20.838Z,20.35
2018-12-20T20:33:49.623Z,19.85
2018-12-20T20:36:18.864Z,18.40
2018-12-20T20:38:47.713Z,20.10
2018-12-20T20:41:16.410Z,20.05
2018-12-20T20:43:45.302Z,18.60
2018-12-20T20:46:14.178Z,23.12
2018-12-20T20:48:43.067Z,21.17
2018-12-20T20:51:11.855Z,21.45
2018-12-20T20:53:40.643Z,18.95
2018-12-20T20:56:09.738Z,18.27
2018-12-20T20:58:38.731Z,19.67
2018-12-20T21:01:07.518Z,17.70
2018-12-20T21:03:36.205Z,18.55
2018-12-20T21:06:05.094Z,17.60
2018-12-20T21:08:33.953Z,19.52
2018-12-20T21:11:02.670Z,24.23
2018-12-20T21:13:31.456Z,18.17
2018-12-20T21:16:00.146Z,18.90
2018-12-20T21:18:29.011Z,19.65
2018-12-20T21:20:57.828Z,20.40
2018-12-20T21:23:26.825Z,17.48
2018-12-20T21:25:55.814Z,15.88
2018-12-20T21:28:24.599Z,19.20
2018-12-20T21:30:53.285Z,16.52
2018-12-20T21:33:22.013Z,17.15
2018-12-20T21:35:50.866Z,17.00
2018-12-20T21:38:19.751Z,16.73
2018-12-20T21:40:48.641Z,18.40
2018-12-20T21:43:17.323Z,16.77
2018-12-20T21:45:46.157Z,18.45
2018-12-20T21:48:14.796Z,19.85
2018-12-20T21:50:43.830Z,17.82
2018-12-20T21:53:12.579Z,18.48
2018-12-20T21:55:41.365Z,16.97
2018-12-20T21:58:10.151Z,18.75
2018-12-20T22:00:39.040Z,19.00
2018-12-20T22:03:07.830Z,16.32
2018-12-20T22:05:36.615Z,14.50
2018-12-20T22:08:05.406Z,14.65
2018-12-20T22:10:34.194Z,14.30
2018-12-20T22:13:03.594Z,12.88
2018-12-20T22:15:32.380Z,13.65
2018-12-20T22:18:01.273Z,13.20
2018-12-20T22:20:30.095Z,13.43
2018-12-20T22:22:59.053Z,12.33
2018-12-20T22:25:27.840Z,14.07
2018-12-20T22:27:56.628Z,13.28
2018-12-20T22:30:25.521Z,12.75
2018-12-20T22:32:54.307Z,12.82
2018-12-20T22:35:23.198Z,12.63
2018-12-20T22:37:51.922Z,18.87
2018-12-20T22:40:20.672Z,15.05
2018-12-20T22:42:49.560Z,11.95
2018-12-20T22:45:18.461Z,13.98
2018-12-20T22:47:47.239Z,12.85
2018-12-20T22:50:16.028Z,11.95
2018-12-20T22:52:44.710Z,11.95
2018-12-20T22:55:13.907Z,13.22
2018-12-20T22:57:42.696Z,10.90
2018-12-20T23:00:12.713Z,12.15
2018-12-20T23:02:41.601Z,12.20
2018-12-20T23:05:10.390Z,11.60
2018-12-20T23:07:39.279Z,12.00
2018-12-20T23:10:08.333Z,11.53
2018-12-20T23:12:37.061Z,11.15
2018-12-20T23:15:06.053Z,11.83
2018-12-20T23:17:34.738Z,11.38
2018-12-20T23:20:03.528Z,10.10
2018-12-20T23:22:32.314Z,9.68
2018-12-20T23:25:01.114Z,11.33
2018-12-20T23:27:29.889Z,11.10
2018-12-20T23:29:58.899Z,11.55
2018-12-20T23:32:27.673Z,11.40
2018-12-20T23:34:56.460Z,11.15
2018-12-20T23:37:25.245Z,11.30
2018-12-20T23:39:54.035Z,11.78
2018-12-20T23:42:23.026Z,10.80
2018-12-20T23:44:51.916Z,10.70
2018-12-20T23:47:20.603Z,10.68
2018-12-20T23:49:49.390Z,10.13
2018-12-20T23:52:18.177Z,11.00
2018-12-20T23:54:47.067Z,10.88
2018-12-20T23:57:15.753Z,10.70
2018-12-20T23:59:44.440Z,10.98
